Accueil
METAR-TAF:

METAR-TAF

Aéroports :

Spaa

Tomaszów Mazowiecki, Pologne

latitude: 51-35-04N, longitude: 020-05-52E, altitude: 174 m

METAR: absent

Heure: 13:18 (11:18 UTC)

Prévision

Le bulletin a été fait il y a 6 heures et 18 minutes, à 05:00 UTC
Prévision valable du 17 à 06 UTC au 17 à 18 UTC
Vent 3 kt de direction variable
Visibilité: 1000 m
Nuages fragmentés à une hauteur de 300 ft
brume
Evoluant progressivement
du 17 à 06 UTC au 17 à 08 UTC
Visibilité 10 km ou plus
pas de nuages en-dessous de 1500 mètres et pas de cumulonimbus.

TAF: EPTM 170500Z 1706/1718 VRB03KT 1000 BR BKN003 BECMG 1706/1708 CAVOK

Observations et prévisions météorologiques de plus de 4000 aéroports (messages METAR et TAF).

Les stations disponibles sont représentées par des disques jaunes et rouges sur la carte.

Passer la souris dessus pour voir le nom de la station.

Cliquer dessus pour voir les observations et prévisions météorologiques.

Pour changer de carte: cliquez sur les boutons verts avec une croix noire pour zoomer, sur le bouton vert avec un tiret pour effectuer un zoom arrière, ou sur les flèches vertes pour les cartes adjacentes.


METAR-TAF: